Breeding, Kentucky
Current Conditions -  °F | °C
As of 4:15 AM on Sunday 25 Jan 2015 (Local Time) from KGLW Reporting Station
Clear Clear  
Wind Chill: 32°   Ceiling: Unl
Heat Index: 36°   Visibility: 10mi
Dew Point: 31°   Wind: 5mph
Humidity: 80%   Direction: 180°S
Pressure: 29.8"   Gusts: NA
Location:  36.96°N, 85.43°W
Report Text: KGLW 251015Z AUTO 18004KT 10SM CLR 02/M01 A2980 RMK AO2 T00241008
Loading
Personal Weather Stations






























Interactive Weather Map New forecast layout! Learn more

10-Day Weather Forecast

Advertisements
Track Severe Weather on mobile